Time;durP1;ratioP1;P1;durP2;ratioP2;P2;SDS_P1;SDS_P2;PMS_P1;PMS_P2;Temp;Humidity;BMP_temperature;BMP_pressure;BME280_temperature;BME280_humidity;BME280_pressure;Samples;Min_cycle;Max_cycle;Signal;HPM_P1;HPM_P2
2022/09/10 00:04:13;;;;;;;4.13;1.95;;;18.80;94.70;;;;;;10560715;28;20059;-63
2022/09/10 00:09:14;;;;;;;4.72;2.08;;;18.80;94.70;;;;;;10561890;28;20333;-63
2022/09/10 00:14:19;;;;;;;2.80;1.77;;;18.70;94.70;;;;;;10558629;28;20054;-63
2022/09/10 00:19:20;;;;;;;2.10;1.85;;;18.70;94.60;;;;;;10558546;28;20016;-70
2022/09/10 00:24:21;;;;;;;2.42;1.60;;;18.70;94.60;;;;;;10557981;28;20016;-68
2022/09/10 00:29:22;;;;;;;2.70;2.22;;;18.70;94.90;;;;;;10559371;28;20596;-64
2022/09/10 00:34:22;;;;;;;5.40;1.92;;;18.70;94.60;;;;;;10558314;28;20034;-63
2022/09/10 00:39:23;;;;;;;3.08;2.00;;;18.70;94.60;;;;;;10561993;28;20023;-63
2022/09/10 00:44:37;;;;;;;5.65;1.92;;;18.60;94.60;;;;;;10560249;28;20027;-65
2022/09/10 00:49:41;;;;;;;2.28;1.75;;;18.60;94.60;;;;;;10559531;28;20419;-67
2022/09/10 00:54:43;;;;;;;2.75;1.85;;;18.60;94.60;;;;;;10557793;28;20032;-64
2022/09/10 00:59:48;;;;;;;2.17;1.70;;;18.60;94.60;;;;;;10557436;28;20020;-64
2022/09/10 01:04:49;;;;;;;3.33;1.88;;;18.60;94.60;;;;;;10558887;28;20031;-63
2022/09/10 01:09:50;;;;;;;2.17;1.90;;;18.60;94.50;;;;;;10557135;28;20032;-64
2022/09/10 01:15:05;;;;;;;3.10;1.88;;;18.60;94.60;;;;;;10557232;28;20028;-64
2022/09/10 01:20:58;;;;;;;2.78;1.90;;;18.60;94.80;;;;;;10548385;28;20028;-63
2022/09/10 01:26:20;;;;;;;2.83;2.30;;;18.60;94.50;;;;;;10538905;28;20032;-63
2022/09/10 01:31:32;;;;;;;1.95;1.70;;;18.60;94.80;;;;;;10565615;28;20047;-64
2022/09/10 01:36:37;;;;;;;2.85;1.90;;;18.60;94.60;;;;;;10562678;28;20126;-64
2022/09/10 01:41:38;;;;;;;3.13;2.08;;;18.60;94.50;;;;;;10566792;28;20544;-64
2022/09/10 01:46:50;;;;;;;2.47;1.92;;;18.60;94.50;;;;;;10563166;28;20016;-63
2022/09/10 01:52:24;;;;;;;2.03;1.77;;;18.50;94.50;;;;;;10565294;28;20108;-63
2022/09/10 01:57:36;;;;;;;3.05;1.90;;;18.50;94.50;;;;;;10560501;28;20031;-64
2022/09/10 02:02:40;;;;;;;3.42;1.90;;;18.50;94.60;;;;;;10559017;28;20055;-64
2022/09/10 02:07:43;;;;;;;2.85;2.10;;;18.50;94.60;;;;;;10564658;28;20031;-64
2022/09/10 02:12:44;;;;;;;3.30;2.20;;;18.50;94.50;;;;;;10565560;28;20078;-63
2022/09/10 02:17:46;;;;;;;4.28;2.03;;;18.50;94.50;;;;;;10564375;28;20020;-64
2022/09/10 02:22:54;;;;;;;3.15;1.90;;;18.50;94.50;;;;;;10564326;28;20051;-65
2022/09/10 02:27:56;;;;;;;2.70;1.90;;;18.50;94.60;;;;;;10557793;28;20047;-63
2022/09/10 02:32:56;;;;;;;2.78;2.17;;;18.50;94.60;;;;;;10560031;28;20036;-63
2022/09/10 02:37:58;;;;;;;4.22;2.58;;;18.50;94.60;;;;;;10558086;28;20016;-64
2022/09/10 02:42:58;;;;;;;2.95;1.92;;;18.50;94.60;;;;;;10561593;28;20071;-64
2022/09/10 02:47:59;;;;;;;3.55;2.20;;;18.50;94.60;;;;;;10559689;28;20054;-64
2022/09/10 02:53:01;;;;;;;3.47;1.88;;;18.50;94.60;;;;;;10546306;28;20054;-64
2022/09/10 02:58:01;;;;;;;4.20;2.33;;;18.50;94.60;;;;;;10564121;28;20035;-64
2022/09/10 03:03:02;;;;;;;3.00;2.10;;;18.50;94.60;;;;;;10557889;28;20019;-63
2022/09/10 03:08:08;;;;;;;3.97;2.30;;;18.50;94.60;;;;;;10560874;28;20062;-64
2022/09/10 03:13:08;;;;;;;3.40;1.90;;;18.50;94.60;;;;;;10560385;28;20400;-63
2022/09/10 03:18:09;;;;;;;2.83;2.15;;;18.50;94.60;;;;;;10563788;28;20024;-63
2022/09/10 03:23:11;;;;;;;3.92;2.05;;;18.50;94.60;;;;;;10557896;28;20077;-63
2022/09/10 03:28:12;;;;;;;4.05;2.50;;;18.40;94.60;;;;;;10561853;28;20048;-63
2022/09/10 03:33:13;;;;;;;2.28;1.90;;;18.40;94.60;;;;;;10559765;28;20040;-63
2022/09/10 03:38:14;;;;;;;2.45;1.75;;;18.40;94.60;;;;;;10560495;28;20032;-63
2022/09/10 03:43:16;;;;;;;3.50;2.00;;;18.40;94.90;;;;;;10560808;28;20757;-63
2022/09/10 03:48:18;;;;;;;2.90;2.28;;;18.40;94.90;;;;;;10555233;28;20333;-67
2022/09/10 03:53:19;;;;;;;2.55;2.00;;;18.40;94.70;;;;;;10558630;28;20499;-63
2022/09/10 03:58:20;;;;;;;4.75;2.40;;;18.40;94.70;;;;;;10538466;28;20027;-63
2022/09/10 04:03:21;;;;;;;4.22;2.50;;;18.40;94.70;;;;;;10561312;28;20023;-64
2022/09/10 04:08:22;;;;;;;4.35;2.20;;;18.40;94.70;;;;;;10556202;28;20052;-64
2022/09/10 04:13:22;;;;;;;6.00;2.75;;;18.40;94.70;;;;;;10559804;28;20130;-63
2022/09/10 04:18:25;;;;;;;4.07;2.15;;;18.40;94.70;;;;;;10552993;28;20484;-63
2022/09/10 04:23:26;;;;;;;3.05;2.30;;;18.40;94.70;;;;;;10560630;28;20035;-63
2022/09/10 04:28:26;;;;;;;4.78;2.70;;;18.30;94.70;;;;;;10557934;28;20078;-63
2022/09/10 04:33:27;;;;;;;4.18;2.22;;;18.30;94.70;;;;;;10558703;28;20333;-63
2022/09/10 04:38:29;;;;;;;5.65;2.50;;;18.30;94.80;;;;;;10561775;28;20015;-64
2022/09/10 04:43:30;;;;;;;2.97;2.40;;;18.30;94.80;;;;;;10557284;28;20114;-64
2022/09/10 04:48:32;;;;;;;9.15;2.58;;;18.30;94.80;;;;;;10557668;28;20011;-63
2022/09/10 04:53:33;;;;;;;6.00;2.90;;;18.30;94.80;;;;;;10558468;28;20499;-63
2022/09/10 04:58:33;;;;;;;4.75;2.40;;;18.30;94.80;;;;;;10559615;28;20108;-63
2022/09/10 05:03:35;;;;;;;4.35;2.75;;;18.30;94.80;;;;;;10559134;28;20452;-63
2022/09/10 05:08:35;;;;;;;4.07;2.58;;;18.30;94.80;;;;;;10562732;28;20102;-63
2022/09/10 05:13:36;;;;;;;4.07;3.03;;;18.30;94.80;;;;;;10570412;28;20556;-64
2022/09/10 05:18:38;;;;;;;6.82;2.90;;;18.30;94.80;;;;;;10490912;28;20152;-64
2022/09/10 05:23:39;;;;;;;5.15;3.22;;;18.30;94.90;;;;;;10486940;28;20077;-64
2022/09/10 05:28:41;;;;;;;5.22;3.35;;;18.30;94.90;;;;;;10486788;28;20715;-63
2022/09/10 05:33:42;;;;;;;4.80;3.05;;;18.30;94.90;;;;;;10486065;28;20602;-63
2022/09/10 05:38:44;;;;;;;5.05;3.17;;;18.30;94.90;;;;;;10488492;28;20216;-63
2022/09/10 05:43:44;;;;;;;4.63;2.95;;;18.30;94.90;;;;;;10487759;28;20052;-63
2022/09/10 05:48:45;;;;;;;7.10;3.38;;;18.30;94.90;;;;;;10488039;28;20476;-67
2022/09/10 05:53:46;;;;;;;5.35;2.95;;;18.30;94.90;;;;;;10486020;28;20403;-66
2022/09/10 05:58:47;;;;;;;5.63;2.90;;;18.30;94.80;;;;;;10470505;28;20475;-63
2022/09/10 06:03:49;;;;;;;4.85;3.15;;;18.30;94.80;;;;;;10480501;28;20437;-63
2022/09/10 06:08:50;;;;;;;3.90;2.80;;;18.30;94.80;;;;;;10480183;28;20097;-65
2022/09/10 06:13:52;;;;;;;4.47;3.22;;;18.30;94.80;;;;;;10483132;28;20512;-62
2022/09/10 06:18:53;;;;;;;4.70;3.05;;;18.30;94.80;;;;;;10480032;28;20770;-63
2022/09/10 06:23:54;;;;;;;5.93;2.90;;;18.30;94.80;;;;;;10482512;28;20032;-63
2022/09/10 06:28:55;;;;;;;5.05;3.35;;;18.30;94.80;;;;;;10490456;28;20047;-63
2022/09/10 06:33:56;;;;;;;5.78;3.00;;;18.40;94.80;;;;;;10489333;28;20753;-64
2022/09/10 06:38:57;;;;;;;5.15;3.38;;;18.40;94.80;;;;;;10484415;28;20139;-65
2022/09/10 06:43:58;;;;;;;6.13;3.25;;;18.40;94.80;;;;;;10478958;28;20067;-64
2022/09/10 06:49:01;;;;;;;5.00;2.90;;;18.40;94.80;;;;;;10487936;28;20438;-65
2022/09/10 06:54:02;;;;;;;4.75;3.33;;;18.40;95.00;;;;;;10484591;28;20040;-66
2022/09/10 06:59:03;;;;;;;6.07;3.75;;;18.40;94.80;;;;;;10480357;28;20067;-65
2022/09/10 07:04:05;;;;;;;4.93;2.92;;;18.40;94.70;;;;;;10482439;28;20143;-64
2022/09/10 07:09:06;;;;;;;4.63;3.20;;;18.40;94.70;;;;;;10460616;28;20039;-63
2022/09/10 07:14:11;;;;;;;5.72;3.25;;;18.50;94.70;;;;;;10483010;28;20570;-65
2022/09/10 07:19:16;;;;;;;4.95;3.00;;;18.50;94.70;;;;;;10481060;28;20031;-63
2022/09/10 07:24:18;;;;;;;5.50;3.10;;;18.50;94.70;;;;;;10479061;28;20153;-63
2022/09/10 07:29:19;;;;;;;5.47;3.10;;;18.50;94.70;;;;;;10478578;28;20055;-64
2022/09/10 07:34:21;;;;;;;5.97;3.20;;;18.50;94.70;;;;;;10483884;28;20266;-63
2022/09/10 07:39:22;;;;;;;3.28;2.90;;;18.50;94.70;;;;;;10453659;28;20597;-65
2022/09/10 07:44:23;;;;;;;3.88;2.88;;;18.50;94.60;;;;;;10477105;28;20242;-63
2022/09/10 07:49:25;;;;;;;4.63;2.55;;;18.60;94.60;;;;;;10481667;27;20115;-65
2022/09/10 07:54:27;;;;;;;4.93;2.70;;;18.60;94.60;;;;;;10480266;28;20050;-72
2022/09/10 07:59:28;;;;;;;4.68;2.80;;;18.60;94.80;;;;;;10481052;28;20042;-65
2022/09/10 08:04:31;;;;;;;3.97;2.83;;;18.60;94.50;;;;;;10474662;28;20287;-64
2022/09/10 08:09:32;;;;;;;4.85;3.10;;;18.70;94.50;;;;;;10455466;28;20467;-63
2022/09/10 08:14:33;;;;;;;3.92;2.75;;;18.70;94.50;;;;;;10479040;28;20593;-63
2022/09/10 08:19:35;;;;;;;6.38;3.10;;;18.70;94.40;;;;;;10460649;28;20280;-63
2022/09/10 08:24:36;;;;;;;4.70;3.13;;;18.70;94.40;;;;;;10469714;28;20473;-63
2022/09/10 08:29:37;;;;;;;3.45;2.70;;;18.70;94.40;;;;;;10470269;28;20480;-64
2022/09/10 08:34:39;;;;;;;2.90;2.38;;;18.80;94.40;;;;;;10466486;28;20040;-63
2022/09/10 08:39:40;;;;;;;3.50;2.58;;;18.80;94.40;;;;;;10465508;28;20031;-63
2022/09/10 08:44:53;;;;;;;3.53;2.40;;;18.80;94.30;;;;;;10473886;28;20479;-65
2022/09/10 08:50:08;;;;;;;3.28;2.40;;;18.90;94.30;;;;;;10473268;28;20042;-63
2022/09/10 08:55:23;;;;;;;3.05;2.50;;;18.80;94.30;;;;;;10485010;28;20580;-64
2022/09/10 09:00:27;;;;;;;4.72;2.58;;;18.80;94.30;;;;;;10463419;28;20028;-64
2022/09/10 09:05:53;;;;;;;3.17;2.50;;;18.80;94.30;;;;;;10418161;22;20057;-64
2022/09/10 09:11:56;;;;;;;3.00;2.50;;;18.90;94.30;;;;;;10345310;28;20344;-64
2022/09/10 09:18:05;;;;;;;3.60;2.33;;;18.90;94.20;;;;;;10493714;22;20061;-65
2022/09/10 09:23:22;;;;;;;3.50;2.38;;;19.00;94.20;;;;;;10365232;28;20648;-64
2022/09/10 09:28:46;;;;;;;4.45;2.30;;;19.00;94.10;;;;;;10353792;28;20025;-64
2022/09/10 09:33:48;;;;;;;2.85;2.35;;;19.10;94.10;;;;;;10361161;28;20045;-68
2022/09/10 09:38:50;;;;;;;5.65;2.20;;;19.00;94.10;;;;;;10365878;28;20036;-62
2022/09/10 09:43:57;;;;;;;4.93;2.40;;;19.10;94.10;;;;;;10363505;28;20110;-63
2022/09/10 09:49:00;;;;;;;6.97;3.27;;;19.10;94.10;;;;;;10354686;28;20191;-63
2022/09/10 09:54:12;;;;;;;9.10;2.83;;;19.10;94.30;;;;;;10358873;28;20515;-63
2022/09/10 09:59:28;;;;;;;3.95;2.45;;;19.20;94.20;;;;;;10367365;28;20410;-63
2022/09/10 10:04:30;;;;;;;4.93;2.33;;;19.30;94.20;;;;;;10369399;28;20354;-63
2022/09/10 10:09:33;;;;;;;3.25;2.42;;;19.40;94.00;;;;;;10367733;28;20037;-63
2022/09/10 10:14:36;;;;;;;6.25;2.35;;;19.50;93.90;;;;;;10355665;28;20804;-63
2022/09/10 10:19:39;;;;;;;3.53;2.20;;;19.60;93.80;;;;;;10359796;28;20072;-69
2022/09/10 10:24:46;;;;;;;2.97;2.40;;;19.60;94.10;;;;;;10359866;28;20025;-64
2022/09/10 10:30:15;;;;;;;2.60;1.88;;;19.70;93.80;;;;;;10362080;28;20028;-63
2022/09/10 10:35:19;;;;;;;2.65;2.13;;;19.70;93.80;;;;;;10352533;28;20270;-63
2022/09/10 10:41:04;;;;;;;2.10;1.90;;;19.80;93.80;;;;;;10357826;28;20500;-63
2022/09/10 10:46:19;;;;;;;2.50;2.10;;;19.80;93.80;;;;;;10323324;28;20243;-65
2022/09/10 10:51:55;;;;;;;5.50;2.83;;;19.80;93.70;;;;;;10364232;28;20048;-63
2022/09/10 10:57:27;;;;;;;5.38;3.70;;;19.80;93.80;;;;;;10340302;28;20035;-63
2022/09/10 11:02:49;;;;;;;4.35;3.17;;;19.90;94.20;;;;;;10363737;28;20025;-67
2022/09/10 11:07:51;;;;;;;5.22;3.33;;;19.90;94.30;;;;;;10358972;28;20718;-65
2022/09/10 11:13:18;;;;;;;5.70;3.45;;;20.10;94.10;;;;;;10359489;28;20041;-62
2022/09/10 11:18:42;;;;;;;9.27;3.97;;;20.20;94.50;;;;;;10362920;28;20041;-64
2022/09/10 11:24:11;;;;;;;4.25;2.78;;;20.40;94.00;;;;;;10366673;28;20091;-63
2022/09/10 11:29:40;;;;;;;6.53;2.97;;;20.40;93.60;;;;;;10366979;28;20401;-64
2022/09/10 11:35:03;;;;;;;5.35;2.70;;;20.40;93.20;;;;;;10364586;28;20467;-66
2022/09/10 11:40:11;;;;;;;3.78;2.78;;;20.30;93.50;;;;;;10363547;28;20055;-64
2022/09/10 11:45:43;;;;;;;3.72;2.10;;;20.30;93.60;;;;;;10366394;28;20029;-63
2022/09/10 11:50:51;;;;;;;6.80;2.38;;;20.50;93.60;;;;;;10359474;28;20073;-63
2022/09/10 11:56:17;;;;;;;6.32;2.55;;;20.80;93.00;;;;;;10364342;28;20293;-63
2022/09/10 12:01:42;;;;;;;2.72;2.28;;;21.00;92.80;;;;;;10353055;28;20151;-64
2022/09/10 12:07:05;;;;;;;4.03;3.03;;;21.10;92.40;;;;;;10362168;28;20088;-64
2022/09/10 12:12:21;;;;;;;5.03;2.35;;;21.00;92.70;;;;;;10364019;28;21120;-65
2022/09/10 12:17:35;;;;;;;1.98;1.77;;;21.00;92.00;;;;;;10365202;28;20062;-68
2022/09/10 12:22:39;;;;;;;6.18;3.15;;;21.10;92.00;;;;;;10363993;28;20121;-63
2022/09/10 12:27:47;;;;;;;8.70;4.30;;;21.20;92.30;;;;;;10363994;28;20557;-64
2022/09/10 12:32:49;;;;;;;7.10;3.75;;;21.20;92.40;;;;;;10368885;28;20044;-64
2022/09/10 12:38:28;;;;;;;6.57;4.05;;;21.00;92.80;;;;;;10372813;28;20546;-64
2022/09/10 12:43:38;;;;;;;7.15;3.80;;;21.00;93.20;;;;;;10366562;28;20702;-64
2022/09/10 12:48:49;;;;;;;9.40;3.80;;;20.60;93.30;;;;;;10367266;28;20563;-64
2022/09/10 12:54:20;;;;;;;5.18;3.22;;;20.50;93.50;;;;;;10368923;28;20462;-64
2022/09/10 13:00:03;;;;;;;6.45;3.92;;;20.60;93.50;;;;;;10364465;28;20021;-64
2022/09/10 13:05:30;;;;;;;7.78;3.00;;;20.60;93.50;;;;;;10370238;28;20280;-68
2022/09/10 13:10:31;;;;;;;6.90;3.80;;;20.60;92.80;;;;;;10362714;28;20454;-69
2022/09/10 13:15:36;;;;;;;4.57;3.13;;;20.60;93.20;;;;;;10367317;28;20401;-67
2022/09/10 13:20:37;;;;;;;5.72;3.58;;;20.60;93.20;;;;;;10365207;28;20045;-64
2022/09/10 13:25:42;;;;;;;6.38;3.78;;;20.60;93.30;;;;;;10369384;28;20291;-64
2022/09/10 13:30:45;;;;;;;4.55;3.33;;;20.70;93.40;;;;;;10366194;28;20054;-63
2022/09/10 13:36:22;;;;;;;7.88;3.85;;;20.70;93.30;;;;;;10350011;28;20506;-64
2022/09/10 13:41:51;;;;;;;7.37;4.00;;;20.70;93.50;;;;;;10350386;28;20144;-63
2022/09/10 13:46:56;;;;;;;7.15;4.20;;;20.60;93.80;;;;;;10345427;28;20035;-63
2022/09/10 13:51:59;;;;;;;8.75;4.40;;;20.60;93.90;;;;;;10353211;28;20053;-63
2022/09/10 13:57:03;;;;;;;6.80;3.78;;;20.70;93.50;;;;;;10356300;28;20954;-63
2022/09/10 14:02:04;;;;;;;8.25;5.20;;;21.10;93.30;;;;;;10357945;28;20353;-63
2022/09/10 14:07:20;;;;;;;6.53;4.07;;;21.10;93.20;;;;;;10356036;28;20052;-63
2022/09/10 14:12:26;;;;;;;6.43;4.10;;;21.00;93.10;;;;;;10355091;28;20067;-63
2022/09/10 14:17:33;;;;;;;9.23;4.43;;;21.00;93.00;;;;;;10361559;28;20044;-70
2022/09/10 14:22:36;;;;;;;7.35;3.90;;;21.40;92.60;;;;;;10356983;28;20135;-64
2022/09/10 14:27:38;;;;;;;7.07;3.80;;;21.60;92.20;;;;;;10368635;28;20832;-64
2022/09/10 14:32:39;;;;;;;6.95;4.03;;;21.50;92.20;;;;;;10368611;28;20037;-64
2022/09/10 14:37:41;;;;;;;9.63;4.65;;;21.80;92.10;;;;;;10370196;28;20572;-64
2022/09/10 14:42:42;;;;;;;7.50;4.20;;;22.10;91.60;;;;;;10368992;28;20434;-64
2022/09/10 14:47:53;;;;;;;6.20;3.67;;;21.90;91.70;;;;;;10370509;28;20032;-63
2022/09/10 14:52:54;;;;;;;6.80;3.80;;;21.50;91.90;;;;;;10372016;28;20316;-63
2022/09/10 14:57:56;;;;;;;7.07;3.83;;;21.30;92.40;;;;;;10371266;28;20114;-63
2022/09/10 15:02:57;;;;;;;4.28;3.15;;;21.30;92.40;;;;;;10365166;28;20041;-64
2022/09/10 15:07:57;;;;;;;6.88;3.80;;;21.50;92.10;;;;;;10366467;28;20363;-64
2022/09/10 15:12:59;;;;;;;5.07;3.20;;;21.40;92.00;;;;;;10364590;28;20509;-63
2022/09/10 15:17:59;;;;;;;8.38;3.28;;;21.20;92.20;;;;;;10372165;28;20053;-63
2022/09/10 15:23:00;;;;;;;8.30;3.83;;;21.10;92.40;;;;;;10368349;28;20691;-63
2022/09/10 15:28:01;;;;;;;4.88;3.75;;;21.00;92.50;;;;;;10368329;28;20039;-63
2022/09/10 15:33:05;;;;;;;7.72;3.25;;;21.00;92.60;;;;;;10369027;28;20040;-63
2022/09/10 15:38:14;;;;;;;5.90;3.15;;;20.90;92.60;;;;;;10367410;28;20049;-64
2022/09/10 15:43:18;;;;;;;;;;;20.80;92.60;;;;;;10366816;28;20489;-65
2022/09/10 15:48:19;;;;;;;7.82;4.07;;;20.90;92.50;;;;;;10355554;28;19943;-64
2022/09/10 15:53:20;;;;;;;13.45;9.30;;;20.90;92.70;;;;;;10354594;28;20052;-63
2022/09/10 15:58:20;;;;;;;11.75;6.57;;;20.80;92.90;;;;;;10359447;28;20029;-63
2022/09/10 16:03:22;;;;;;;13.27;8.35;;;20.70;92.90;;;;;;10361537;28;20667;-63
2022/09/10 16:08:22;;;;;;;12.90;7.90;;;20.60;92.90;;;;;;10366683;28;20483;-62
2022/09/10 16:13:24;;;;;;;24.58;14.55;;;20.50;93.10;;;;;;10356563;28;20405;-63
2022/09/10 16:18:26;;;;;;;16.17;9.25;;;20.50;93.30;;;;;;10355055;28;20509;-63
2022/09/10 16:23:27;;;;;;;19.17;9.38;;;20.50;92.90;;;;;;10360737;28;20033;-63
2022/09/10 16:28:28;;;;;;;18.95;9.07;;;20.50;92.90;;;;;;10356002;28;21833;-63
2022/09/10 16:33:30;;;;;;;17.42;7.45;;;20.60;92.90;;;;;;10358571;28;20052;-64
2022/09/10 16:38:31;;;;;;;11.18;5.28;;;20.60;92.80;;;;;;10343751;28;20029;-63
2022/09/10 16:43:34;;;;;;;5.80;3.28;;;20.60;92.80;;;;;;10337091;28;20087;-63
2022/09/10 16:48:36;;;;;;;3.20;2.55;;;20.60;92.60;;;;;;10358588;28;20103;-62
2022/09/10 16:53:41;;;;;;;6.07;3.00;;;20.60;92.70;;;;;;10349473;28;20560;-78
2022/09/10 16:58:46;;;;;;;5.22;3.10;;;20.50;92.80;;;;;;10356805;28;20025;-63
2022/09/10 17:03:50;;;;;;;5.00;3.13;;;20.40;93.10;;;;;;10360988;28;20168;-70
2022/09/10 17:08:57;;;;;;;5.30;3.00;;;20.30;93.40;;;;;;10368954;28;20040;-63
2022/09/10 17:14:02;;;;;;;4.72;2.80;;;20.30;93.50;;;;;;10365818;28;20218;-63
2022/09/10 17:19:08;;;;;;;4.07;2.63;;;20.40;93.80;;;;;;10359898;28;20615;-68
2022/09/10 17:24:11;;;;;;;4.70;2.47;;;20.50;93.50;;;;;;10362263;28;20634;-69
2022/09/10 17:29:14;;;;;;;4.97;2.85;;;20.70;93.40;;;;;;10368566;28;20040;-63
2022/09/10 17:34:15;;;;;;;4.72;2.90;;;20.60;93.40;;;;;;10369616;28;20073;-63
2022/09/10 17:39:17;;;;;;;6.00;2.88;;;20.60;93.30;;;;;;10371514;28;20040;-63
2022/09/10 17:44:17;;;;;;;4.72;2.75;;;20.70;93.40;;;;;;10370322;28;20025;-62
2022/09/10 17:49:18;;;;;;;4.68;3.00;;;20.70;93.40;;;;;;10365477;28;20033;-63
2022/09/10 17:54:19;;;;;;;4.60;2.80;;;20.70;93.40;;;;;;10366077;28;20041;-63
2022/09/10 17:59:20;;;;;;;3.38;2.78;;;20.70;93.40;;;;;;10358802;28;20206;-63
2022/09/10 18:04:21;;;;;;;5.15;3.00;;;20.60;93.50;;;;;;10355873;28;20493;-62
2022/09/10 18:09:24;;;;;;;3.80;3.00;;;20.60;93.50;;;;;;10364141;28;20778;-62
2022/09/10 18:14:25;;;;;;;5.32;3.28;;;20.60;93.50;;;;;;10362288;28;20049;-63
2022/09/10 18:19:25;;;;;;;3.97;2.95;;;20.60;93.50;;;;;;10359756;28;20997;-63
2022/09/10 18:24:26;;;;;;;6.45;3.75;;;20.60;93.60;;;;;;10358475;28;20063;-63
2022/09/10 18:29:28;;;;;;;6.80;4.03;;;20.60;93.60;;;;;;10359192;28;20118;-63
2022/09/10 18:34:29;;;;;;;6.75;4.00;;;20.60;93.70;;;;;;10414569;28;20033;-63
2022/09/10 18:39:32;;;;;;;4.97;3.72;;;20.60;93.70;;;;;;10444555;28;20450;-64
2022/09/10 18:44:35;;;;;;;5.00;3.80;;;20.50;93.70;;;;;;10443596;28;20051;-63
2022/09/10 18:49:37;;;;;;;7.72;3.92;;;20.50;93.70;;;;;;10440949;28;20029;-63
2022/09/10 18:54:39;;;;;;;5.97;3.70;;;20.50;93.80;;;;;;10441832;28;20037;-63
2022/09/10 18:59:39;;;;;;;4.50;3.72;;;20.40;93.80;;;;;;10442885;28;20028;-67
2022/09/10 19:04:40;;;;;;;4.70;3.70;;;20.40;93.80;;;;;;10441457;28;20040;-64
2022/09/10 19:09:42;;;;;;;5.22;3.67;;;20.40;93.80;;;;;;10442342;28;20025;-63
2022/09/10 19:14:44;;;;;;;7.72;3.60;;;20.40;93.80;;;;;;10440325;28;20033;-63
2022/09/10 19:19:46;;;;;;;6.70;4.00;;;20.40;93.90;;;;;;10441574;28;20440;-64
2022/09/10 19:24:47;;;;;;;5.72;3.45;;;20.30;93.90;;;;;;10439949;28;20094;-63
2022/09/10 19:29:48;;;;;;;6.00;3.80;;;20.30;93.90;;;;;;10440387;28;20066;-63
2022/09/10 19:34:50;;;;;;;5.75;4.00;;;20.30;93.90;;;;;;10441345;28;20073;-62
2022/09/10 19:39:50;;;;;;;5.57;3.28;;;20.30;93.90;;;;;;10441500;28;20388;-63
2022/09/10 19:44:51;;;;;;;7.93;3.80;;;20.20;93.90;;;;;;10440510;28;20040;-63
2022/09/10 19:49:52;;;;;;;3.95;3.33;;;20.20;94.00;;;;;;10440466;28;20171;-65
2022/09/10 19:54:53;;;;;;;3.67;3.20;;;20.20;94.00;;;;;;10440787;28;20382;-63
2022/09/10 19:59:53;;;;;;;5.65;3.60;;;20.20;94.00;;;;;;10435935;28;20032;-63
2022/09/10 20:04:55;;;;;;;5.45;3.95;;;20.20;94.00;;;;;;10439220;28;20385;-63
2022/09/10 20:09:56;;;;;;;5.22;3.72;;;20.10;94.00;;;;;;10437367;28;20460;-63
2022/09/10 20:14:56;;;;;;;5.30;3.92;;;20.10;94.00;;;;;;10438341;28;20049;-68
2022/09/10 20:19:57;;;;;;;6.50;4.20;;;20.10;94.00;;;;;;10438321;28;20128;-63
2022/09/10 20:24:58;;;;;;;5.13;4.15;;;20.10;94.10;;;;;;10438901;28;20033;-68
2022/09/10 20:30:01;;;;;;;6.70;4.43;;;20.10;94.10;;;;;;10439956;28;20025;-62
2022/09/10 20:35:02;;;;;;;5.93;4.00;;;20.00;94.10;;;;;;10448254;28;20501;-65
2022/09/10 20:40:03;;;;;;;5.35;4.03;;;20.00;94.10;;;;;;10449749;28;20681;-64
2022/09/10 20:45:05;;;;;;;7.43;4.57;;;20.00;94.10;;;;;;10449502;28;20049;-63
2022/09/10 20:50:06;;;;;;;5.25;4.43;;;20.00;94.10;;;;;;10448746;28;20539;-68
2022/09/10 20:55:07;;;;;;;6.93;4.53;;;19.90;94.10;;;;;;10452297;28;20083;-63
2022/09/10 21:00:09;;;;;;;5.10;4.35;;;19.90;94.10;;;;;;10452447;28;20021;-63
2022/09/10 21:05:10;;;;;;;5.68;4.70;;;19.90;94.10;;;;;;10448727;28;20036;-63
2022/09/10 21:10:11;;;;;;;6.88;4.28;;;19.90;94.10;;;;;;10450982;28;20033;-63
2022/09/10 21:15:11;;;;;;;6.20;5.10;;;19.80;94.10;;;;;;10452300;28;20036;-63
2022/09/10 21:20:13;;;;;;;6.50;4.45;;;19.80;94.10;;;;;;10451370;28;20392;-62
2022/09/10 21:25:13;;;;;;;7.13;4.68;;;19.80;94.10;;;;;;10451557;28;20744;-66
2022/09/10 21:30:14;;;;;;;9.38;4.90;;;19.80;94.20;;;;;;10453549;28;20025;-63
2022/09/10 21:35:15;;;;;;;6.32;4.65;;;19.70;94.20;;;;;;10440797;28;20127;-65
2022/09/10 21:40:16;;;;;;;6.53;4.72;;;19.70;94.20;;;;;;10439830;28;20025;-62
2022/09/10 21:45:17;;;;;;;6.05;4.75;;;19.70;94.20;;;;;;10440676;28;20033;-63
2022/09/10 21:50:18;;;;;;;6.80;4.90;;;19.70;94.20;;;;;;10430104;28;20044;-62
2022/09/10 21:55:18;;;;;;;7.65;4.90;;;19.60;94.20;;;;;;10439350;28;20075;-66
2022/09/10 22:00:19;;;;;;;6.10;4.82;;;19.60;94.20;;;;;;10446922;28;20221;-63
2022/09/10 22:05:20;;;;;;;6.75;4.93;;;19.60;94.20;;;;;;10443832;28;20043;-63
2022/09/10 22:10:21;;;;;;;7.20;4.68;;;19.60;94.20;;;;;;10444691;28;20041;-63
2022/09/10 22:15:22;;;;;;;7.45;4.82;;;19.50;94.10;;;;;;10440037;28;20037;-63
2022/09/10 22:20:22;;;;;;;7.47;4.60;;;19.50;94.10;;;;;;10442539;28;20045;-62
2022/09/10 22:25:23;;;;;;;5.50;4.50;;;19.50;94.10;;;;;;10442426;28;20044;-63
2022/09/10 22:30:26;;;;;;;7.88;4.25;;;19.50;94.10;;;;;;10443226;28;20017;-64
2022/09/10 22:35:27;;;;;;;8.88;4.65;;;19.40;94.10;;;;;;10443699;28;20033;-63
2022/09/10 22:40:28;;;;;;;5.38;4.20;;;19.40;94.10;;;;;;10441804;28;20029;-63
2022/09/10 22:45:29;;;;;;;5.90;4.53;;;19.40;94.10;;;;;;10437627;28;20059;-65
2022/09/10 22:50:29;;;;;;;6.13;4.38;;;19.40;94.10;;;;;;10443810;28;20612;-63
2022/09/10 22:55:30;;;;;;;6.55;3.85;;;19.40;94.10;;;;;;10446020;28;20025;-63
2022/09/10 23:00:34;;;;;;;5.20;4.25;;;19.30;94.10;;;;;;10447389;28;20155;-64
2022/09/10 23:05:35;;;;;;;7.90;4.72;;;19.30;94.10;;;;;;10442821;28;20029;-64
2022/09/10 23:10:36;;;;;;;8.02;5.32;;;19.30;94.10;;;;;;10445985;28;20029;-63
2022/09/10 23:15:36;;;;;;;6.43;4.47;;;19.30;94.10;;;;;;10441829;28;20037;-64
2022/09/10 23:20:37;;;;;;;7.22;4.30;;;19.30;94.10;;;;;;10440523;28;20480;-63
2022/09/10 23:25:38;;;;;;;7.82;4.70;;;19.20;94.10;;;;;;10440659;28;20029;-62
2022/09/10 23:30:38;;;;;;;6.07;4.65;;;19.20;94.10;;;;;;10441973;28;20065;-63
2022/09/10 23:35:47;;;;;;;5.65;4.47;;;19.20;94.10;;;;;;10444642;28;20047;-63
2022/09/10 23:40:48;;;;;;;7.32;4.45;;;19.20;94.10;;;;;;10441121;28;20110;-63
2022/09/10 23:45:49;;;;;;;6.03;4.53;;;19.20;94.20;;;;;;10443210;28;20049;-63
2022/09/10 23:50:51;;;;;;;5.93;4.80;;;19.10;94.10;;;;;;10444442;28;20044;-62
2022/09/10 23:55:52;;;;;;;6.13;4.50;;;19.10;94.20;;;;;;10441286;28;20036;-63
